Time;durP1;ratioP1;P1;durP2;ratioP2;P2;SDS_P1;SDS_P2;PMS_P1;PMS_P2;Temp;Humidity;BMP_temperature;BMP_pressure;BME280_temperature;BME280_humidity;BME280_pressure;Samples;Min_cycle;Max_cycle;Signal;HPM_P1;HPM_P2
2022/09/04 00:00:08;;;;;;;16.05;11.65;;;;;;;30.65;32.57;101397.72;5036201;28;20012;-71
2022/09/04 00:02:54;;;;;;;16.60;11.52;;;;;;;30.48;32.89;101405.41;5038774;28;20024;-71
2022/09/04 00:05:47;;;;;;;16.67;11.50;;;;;;;30.54;32.61;101407.59;5064690;28;20028;-71
2022/09/04 00:08:50;;;;;;;14.27;11.82;;;;;;;30.45;32.99;101398.44;5053886;28;20029;-70
2022/09/04 00:11:31;;;;;;;13.30;11.90;;;;;;;30.33;33.22;101396.75;5045062;28;20115;-70
2022/09/04 00:14:01;;;;;;;12.57;11.38;;;;;;;30.52;32.62;101401.47;5035403;28;20082;-71
2022/09/04 00:16:41;;;;;;;13.73;11.07;;;;;;;30.43;32.82;101394.13;5044631;28;20544;-71
2022/09/04 00:19:38;;;;;;;13.05;11.75;;;;;;;30.43;33.01;101394.13;5054755;28;20115;-71
2022/09/04 00:22:35;;;;;;;15.88;12.25;;;;;;;30.25;33.50;101392.03;5072043;28;20043;-71
2022/09/04 00:25:20;;;;;;;12.95;10.70;;;;;;;30.17;34.33;101399.94;5026431;28;20434;-71
2022/09/04 00:27:51;;;;;;;14.02;12.50;;;;;;;30.03;34.44;101402.91;5071673;28;20036;-71
2022/09/04 00:30:19;;;;;;;14.85;11.95;;;;;;;30.40;33.81;101405.19;5062976;28;20071;-71
2022/09/04 00:32:53;;;;;;;13.70;12.00;;;;;;;30.35;33.76;101412.81;5054925;28;20090;-71
2022/09/04 00:35:23;;;;;;;17.33;13.25;;;;;;;30.33;34.04;101409.41;5067350;28;20040;-71
2022/09/04 00:38:00;;;;;;;13.95;11.88;;;;;;;30.50;33.72;101410.69;5055757;28;20029;-71
2022/09/04 00:40:38;;;;;;;16.50;13.52;;;;;;;30.14;34.75;101421.72;5067523;28;20024;-71
2022/09/04 00:43:35;;;;;;;17.30;12.20;;;;;;;30.22;34.40;101416.53;5049947;28;20063;-71
2022/09/04 00:46:16;;;;;;;16.27;12.27;;;;;;;30.26;34.79;101423.38;5070351;28;20500;-71
2022/09/04 00:48:57;;;;;;;13.50;12.10;;;;;;;30.32;34.55;101423.84;5054427;28;20409;-71
2022/09/04 00:51:31;;;;;;;14.68;12.80;;;;;;;30.19;34.48;101419.50;5044217;28;20455;-71
2022/09/04 00:54:17;;;;;;;13.43;11.75;;;;;;;30.40;34.29;101421.38;5037023;28;20032;-71
2022/09/04 00:57:05;;;;;;;14.65;12.27;;;;;;;30.46;34.17;101431.69;5062753;28;20471;-71
2022/09/04 00:59:49;;;;;;;13.73;12.32;;;;;;;30.39;34.73;101427.72;5034090;28;20044;-70
2022/09/04 01:02:22;;;;;;;14.57;12.30;;;;;;;30.44;34.61;101433.63;5035453;28;20052;-71
2022/09/04 01:05:30;;;;;;;12.60;11.35;;;;;;;30.12;35.26;101439.88;5068786;28;20548;-71
2022/09/04 01:08:03;;;;;;;14.82;12.15;;;;;;;29.92;35.86;101439.72;5071824;28;20036;-71
2022/09/04 01:11:07;;;;;;;15.93;12.65;;;;;;;29.90;35.63;101446.22;5053841;28;20051;-71
2022/09/04 01:13:54;;;;;;;17.05;12.55;;;;;;;30.03;35.45;101457.66;5059188;28;20078;-71
2022/09/04 01:16:24;;;;;;;14.40;12.65;;;;;;;30.12;34.79;101456.06;5070435;28;20107;-71
2022/09/04 01:19:06;;;;;;;13.82;12.35;;;;;;;29.76;35.64;101456.25;5071259;28;20029;-71
2022/09/04 01:22:09;;;;;;;13.38;11.93;;;;;;;29.83;35.45;101462.00;5070415;28;20185;-71
2022/09/04 01:24:37;;;;;;;18.60;12.70;;;;;;;29.80;35.51;101462.25;5052119;28;20052;-71
2022/09/04 01:27:48;;;;;;;15.63;13.20;;;;;;;30.04;35.35;101463.94;5051592;28;20025;-71
2022/09/04 01:30:18;;;;;;;14.20;12.70;;;;;;;30.07;35.42;101474.44;4954407;28;20035;-71
2022/09/04 01:33:19;;;;;;;16.73;13.48;;;;;;;29.74;35.68;101468.13;4968446;28;20046;-71
2022/09/04 01:36:21;;;;;;;17.20;12.75;;;;;;;29.74;35.96;101462.72;5041336;28;20507;-71
2022/09/04 01:38:52;;;;;;;17.77;12.68;;;;;;;29.69;36.22;101464.94;5072377;28;20511;-71
2022/09/04 01:41:34;;;;;;;20.23;13.43;;;;;;;29.52;36.27;101464.47;5044458;28;20032;-71
2022/09/04 01:44:03;;;;;;;18.40;13.15;;;;;;;29.65;36.22;101464.34;5065352;28;20024;-71
2022/09/04 01:46:44;;;;;;;15.38;12.93;;;;;;;29.81;35.58;101458.56;5072122;28;20127;-71
2022/09/04 01:49:19;;;;;;;15.13;13.13;;;;;;;29.86;35.64;101467.16;5068061;28;20029;-71
2022/09/04 01:51:54;;;;;;;15.40;12.90;;;;;;;29.84;35.22;101471.78;5050724;28;20035;-71
2022/09/04 01:54:55;;;;;;;14.93;11.93;;;;;;;29.71;35.96;101474.63;5045918;28;20115;-71
2022/09/04 01:57:33;;;;;;;14.10;12.48;;;;;;;29.50;36.49;101471.84;4967752;28;20025;-71
2022/09/04 02:00:08;;;;;;;15.80;13.65;;;;;;;29.60;36.15;101467.41;5056275;28;20032;-70
2022/09/04 02:02:55;;;;;;;16.27;13.73;;;;;;;29.57;36.26;101467.66;5043999;28;20123;-71
2022/09/04 02:05:48;;;;;;;17.20;14.40;;;;;;;29.56;36.44;101471.31;5040798;28;20036;-71
2022/09/04 02:08:34;;;;;;;16.73;13.52;;;;;;;29.63;36.43;101470.84;5035782;28;20097;-71
2022/09/04 02:11:18;;;;;;;16.73;13.45;;;;;;;29.37;36.73;101471.09;5066243;28;20047;-71
2022/09/04 02:14:28;;;;;;;18.65;14.25;;;;;;;29.42;36.31;101469.75;5068103;28;20058;-71
2022/09/04 02:16:55;;;;;;;15.70;13.35;;;;;;;29.57;36.13;101475.75;4988068;28;20034;-71
2022/09/04 02:20:04;;;;;;;15.73;13.70;;;;;;;29.91;35.17;101480.22;5050218;28;20581;-71
2022/09/04 02:22:32;;;;;;;21.75;14.40;;;;;;;29.46;36.30;101478.44;5052086;28;20028;-71
2022/09/04 02:25:15;;;;;;;22.48;15.77;;;;;;;29.70;35.97;101482.81;5068393;28;20086;-71
2022/09/04 02:28:07;;;;;;;19.90;15.07;;;;;;;29.52;36.11;101488.72;5033065;28;20397;-71
2022/09/04 02:31:02;;;;;;;16.20;13.13;;;;;;;29.79;35.71;101482.06;5018881;28;20472;-71
2022/09/04 02:33:34;;;;;;;20.02;14.40;;;;;;;29.53;36.32;101493.13;5067823;28;20115;-71
2022/09/04 02:36:38;;;;;;;16.80;13.98;;;;;;;29.67;35.50;101499.25;5071037;28;20036;-71
2022/09/04 02:39:34;;;;;;;17.35;14.60;;;;;;;29.78;35.51;101496.53;5058625;28;20029;-71
2022/09/04 02:42:09;;;;;;;19.38;14.10;;;;;;;29.59;36.02;101492.66;5051634;28;20381;-70
2022/09/04 02:44:50;;;;;;;18.90;14.98;;;;;;;29.55;36.33;101496.56;5064679;28;20025;-68
2022/09/04 02:47:54;;;;;;;19.00;15.45;;;;;;;29.35;36.48;101494.63;5068465;28;20497;-71
2022/09/04 02:50:52;;;;;;;16.27;13.70;;;;;;;29.54;36.22;101494.84;5066168;28;20028;-71
2022/09/04 02:53:55;;;;;;;18.13;14.68;;;;;;;29.11;36.99;101503.59;5009888;28;20448;-71
2022/09/04 02:56:36;;;;;;;16.35;13.40;;;;;;;29.39;36.64;101494.22;5033205;28;20043;-71
2022/09/04 02:59:20;;;;;;;18.20;13.98;;;;;;;29.50;36.27;101498.75;5067725;28;20409;-71
2022/09/04 03:01:52;;;;;;;20.38;14.80;;;;;;;29.06;37.12;101508.50;5078668;28;20110;-71
2022/09/04 03:04:17;;;;;;;17.45;14.73;;;;;;;29.26;36.79;101502.44;5063252;28;20036;-71
2022/09/04 03:07:07;;;;;;;15.15;13.02;;;;;;;29.34;36.56;101500.97;5068609;28;20041;-71
2022/09/04 03:09:45;;;;;;;15.90;13.30;;;;;;;29.49;36.19;101505.13;5069701;28;20028;-71
2022/09/04 03:12:35;;;;;;;17.92;13.68;;;;;;;29.47;36.00;101504.41;5055068;28;20036;-71
2022/09/04 03:15:23;;;;;;;16.92;14.82;;;;;;;29.55;35.97;101501.94;5065547;28;20036;-71
2022/09/04 03:18:16;;;;;;;17.92;14.80;;;;;;;29.38;36.71;101514.03;5068549;28;20036;-71
2022/09/04 03:21:11;;;;;;;19.55;15.30;;;;;;;29.40;36.76;101511.22;5062658;28;20048;-71
2022/09/04 03:23:59;;;;;;;19.50;15.38;;;;;;;29.08;37.24;101522.69;5051376;28;20039;-71
2022/09/04 03:26:36;;;;;;;20.85;15.52;;;;;;;29.51;36.29;101511.25;5057011;28;20051;-71
2022/09/04 03:29:28;;;;;;;16.50;14.57;;;;;;;29.26;36.65;101526.66;5066392;28;20036;-70
2022/09/04 03:32:04;;;;;;;23.15;16.48;;;;;;;29.00;37.67;101517.03;5065936;28;20055;-71
2022/09/04 03:34:41;;;;;;;21.73;16.33;;;;;;;29.18;37.21;101531.75;5062596;28;20477;-71
2022/09/04 03:37:30;;;;;;;22.25;16.05;;;;;;;29.27;37.01;101522.97;5065587;28;20025;-71
2022/09/04 03:40:13;;;;;;;18.52;15.43;;;;;;;29.11;36.93;101533.19;5054389;28;20112;-71
2022/09/04 03:42:38;;;;;;;17.60;14.88;;;;;;;29.23;37.07;101528.69;5052160;28;20044;-71
2022/09/04 03:45:30;;;;;;;18.85;16.25;;;;;;;29.12;37.24;101534.91;5072407;28;20053;-71
2022/09/04 03:48:17;;;;;;;17.75;15.55;;;;;;;29.42;36.88;101528.13;5041012;28;20419;-71
2022/09/04 03:50:46;;;;;;;18.23;14.13;;;;;;;29.41;36.25;101537.19;5072250;28;20111;-71
2022/09/04 03:53:53;;;;;;;19.40;15.45;;;;;;;29.03;37.12;101544.56;5073038;28;20108;-71
2022/09/04 03:56:18;;;;;;;18.58;15.70;;;;;;;28.77;38.30;101539.34;5007131;28;20033;-71
2022/09/04 03:59:04;;;;;;;17.88;16.00;;;;;;;28.50;38.90;101546.81;5054372;28;20027;-71
2022/09/04 04:01:57;;;;;;;18.98;15.02;;;;;;;29.06;37.70;101548.84;5053446;28;20029;-71
2022/09/04 04:04:44;;;;;;;21.10;15.75;;;;;;;28.78;38.25;101550.97;5066106;28;20425;-71
2022/09/04 04:07:37;;;;;;;20.55;15.68;;;;;;;28.58;38.55;101556.00;5035959;28;20815;-71
2022/09/04 04:10:32;;;;;;;19.95;17.17;;;;;;;28.82;38.00;101552.44;5035079;28;20036;-71
2022/09/04 04:13:03;;;;;;;20.50;16.45;;;;;;;28.79;38.36;101558.06;5049295;28;20033;-71
2022/09/04 04:15:39;;;;;;;16.83;15.02;;;;;;;28.84;38.57;101553.19;5072524;28;20460;-71
2022/09/04 04:18:04;;;;;;;18.27;14.95;;;;;;;28.97;37.69;101565.72;5071887;28;20496;-71
2022/09/04 04:20:33;;;;;;;17.60;14.63;;;;;;;29.15;37.61;101560.72;5054936;28;20047;-71
2022/09/04 04:23:46;;;;;;;18.60;15.68;;;;;;;28.89;38.35;101559.09;5071500;28;20029;-71
2022/09/04 04:26:27;;;;;;;18.15;15.13;;;;;;;28.71;38.79;101571.22;4969932;28;20093;-71
2022/09/04 04:29:28;;;;;;;17.92;15.38;;;;;;;28.79;38.34;101559.91;5052110;28;20503;-71
2022/09/04 04:32:12;;;;;;;20.33;15.43;;;;;;;28.73;38.39;101563.91;5004303;28;20489;-71
2022/09/04 04:35:12;;;;;;;20.30;15.15;;;;;;;29.20;37.35;101566.63;5066589;28;20078;-71
2022/09/04 04:37:50;;;;;;;19.20;15.48;;;;;;;28.83;38.07;101570.31;5052730;28;20048;-71
2022/09/04 04:40:38;;;;;;;17.90;14.93;;;;;;;28.53;38.70;101571.59;5037726;28;20128;-72
2022/09/04 04:43:24;;;;;;;17.77;15.45;;;;;;;28.51;38.62;101576.25;5067495;28;20495;-71
2022/09/04 04:46:10;;;;;;;17.92;14.85;;;;;;;28.77;38.09;101581.53;5043299;28;20527;-71
2022/09/04 04:48:35;;;;;;;22.50;16.42;;;;;;;28.43;38.97;101578.66;5086490;28;20480;-72
2022/09/04 04:51:30;;;;;;;18.50;16.50;;;;;;;28.67;38.54;101584.03;5085973;28;20051;-71
2022/09/04 04:54:22;;;;;;;21.10;17.27;;;;;;;28.47;38.78;101577.47;5072338;28;20471;-72
2022/09/04 04:56:56;;;;;;;21.55;17.60;;;;;;;28.31;38.91;101568.81;5079925;28;20503;-72
2022/09/04 04:59:50;;;;;;;20.17;16.08;;;;;;;28.19;39.03;101566.06;5071258;28;20032;-72
2022/09/04 05:02:20;;;;;;;22.10;16.50;;;;;;;28.40;38.55;101579.75;5074336;28;20056;-71
2022/09/04 05:05:03;;;;;;;24.35;18.08;;;;;;;28.39;38.51;101577.16;5085511;28;20028;-71
2022/09/04 05:08:02;;;;;;;22.27;17.83;;;;;;;28.18;39.25;101591.22;5059803;28;20039;-71
2022/09/04 05:10:30;;;;;;;22.00;18.40;;;;;;;28.52;38.27;101594.09;5035681;28;20036;-71
2022/09/04 05:13:50;;;;;;;23.30;17.73;;;;;;;28.40;38.74;101600.41;5071602;28;20032;-71
2022/09/04 05:16:33;;;;;;;22.17;18.08;;;;;;;28.31;38.90;101601.91;5009645;28;20026;-71
2022/09/04 05:19:02;;;;;;;28.48;19.25;;;;;;;28.02;39.41;101601.34;5066178;28;20093;-72
2022/09/04 05:21:50;;;;;;;19.80;16.95;;;;;;;28.11;38.37;101606.06;5054841;28;20480;-72
2022/09/04 05:24:24;;;;;;;22.13;17.33;;;;;;;27.79;39.74;101617.25;5073341;28;20024;-71
2022/09/04 05:27:03;;;;;;;24.08;17.67;;;;;;;28.10;39.05;101620.47;5052918;28;20040;-71
2022/09/04 05:29:58;;;;;;;22.48;18.60;;;;;;;27.84;39.76;101625.84;5054531;28;20028;-71
2022/09/04 05:32:42;;;;;;;24.77;18.55;;;;;;;28.24;38.70;101623.00;5029940;28;20078;-71
2022/09/04 05:35:22;;;;;;;23.85;19.67;;;;;;;27.88;40.02;101637.25;5083488;28;20038;-71
2022/09/04 05:38:00;;;;;;;19.52;17.02;;;;;;;28.06;39.63;101640.47;5060108;28;20038;-71
2022/09/04 05:41:04;;;;;;;21.75;18.15;;;;;;;28.03;39.48;101648.75;5089377;28;20036;-71
2022/09/04 05:43:54;;;;;;;24.65;19.50;;;;;;;28.09;39.22;101645.63;5089061;28;20030;-71
2022/09/04 05:46:52;;;;;;;25.67;19.40;;;;;;;27.83;40.33;101645.59;5078632;28;20044;-71
2022/09/04 05:49:23;;;;;;;25.15;20.40;;;;;;;27.87;40.19;101651.63;5002296;28;20038;-71
2022/09/04 05:52:17;;;;;;;21.10;17.42;;;;;;;28.44;38.76;101644.91;5050362;28;20095;-71
2022/09/04 05:55:09;;;;;;;25.67;18.83;;;;;;;28.28;39.23;101645.16;5043031;28;20052;-71
2022/09/04 05:57:38;;;;;;;23.77;18.83;;;;;;;27.97;39.82;101650.00;5072102;28;20043;-71
2022/09/04 06:00:15;;;;;;;24.17;18.75;;;;;;;28.44;38.86;101652.97;5041299;28;20408;-71
2022/09/04 06:02:43;;;;;;;23.42;19.33;;;;;;;28.42;39.13;101657.56;5068425;28;20484;-71
2022/09/04 06:05:31;;;;;;;23.85;18.70;;;;;;;28.37;39.36;101657.94;5040487;28;20374;-71
2022/09/04 06:08:07;;;;;;;25.05;19.65;;;;;;;28.51;38.80;101656.91;5005177;28;20055;-71
2022/09/04 06:11:17;;;;;;;23.92;18.83;;;;;;;28.38;39.39;101658.78;5044661;28;20028;-72
2022/09/04 06:13:51;;;;;;;22.85;17.30;;;;;;;28.76;38.71;101660.50;5019465;28;20033;-71
2022/09/04 06:16:32;;;;;;;23.48;19.30;;;;;;;28.25;39.87;101661.50;5033200;28;20064;-71
2022/09/04 06:19:28;;;;;;;21.92;18.52;;;;;;;28.55;39.19;101660.22;5032528;28;20522;-71
2022/09/04 06:22:00;;;;;;;18.55;15.13;;;;;;;29.01;38.19;101664.03;5031254;28;20033;-71
2022/09/04 06:24:31;;;;;;;21.60;17.38;;;;;;;28.89;38.85;101661.31;5032801;28;20051;-73
2022/09/04 06:27:08;;;;;;;24.73;19.00;;;;;;;29.12;38.96;101669.47;5051245;28;20091;-71
2022/09/04 06:29:43;;;;;;;19.90;17.35;;;;;;;29.14;38.79;101672.03;5035485;28;20042;-71
2022/09/04 06:32:29;;;;;;;25.65;19.33;;;;;;;29.06;39.29;101672.63;5051746;28;20036;-71
2022/09/04 06:35:33;;;;;;;23.13;17.70;;;;;;;28.41;41.16;101682.72;5065966;28;20052;-71
2022/09/04 06:38:13;;;;;;;23.75;19.55;;;;;;;27.51;42.70;101693.50;4933903;29;20104;-71
2022/09/04 06:40:47;;;;;;;21.92;18.88;;;;;;;28.88;40.29;101681.13;5030261;28;20457;-71
2022/09/04 06:43:21;;;;;;;24.90;20.33;;;;;;;28.38;42.04;101689.19;5052457;28;20044;-71
2022/09/04 06:46:12;;;;;;;25.80;18.92;;;;;;;29.13;40.25;101683.78;5050332;28;20041;-72
2022/09/04 06:48:49;;;;;;;26.45;20.35;;;;;;;29.04;40.57;101688.03;5058630;28;20429;-71
2022/09/04 06:51:28;;;;;;;25.02;19.83;;;;;;;29.34;40.24;101697.47;5060481;28;20021;-71
2022/09/04 06:54:15;;;;;;;22.92;19.15;;;;;;;29.30;40.42;101699.53;5041973;28;20037;-71
2022/09/04 06:57:03;;;;;;;22.92;18.73;;;;;;;29.61;39.30;101695.34;5053367;28;20586;-72
2022/09/04 06:59:45;;;;;;;26.10;20.00;;;;;;;29.81;39.06;101695.63;5051692;28;20669;-71
2022/09/04 07:02:35;;;;;;;25.48;18.67;;;;;;;29.85;39.72;101699.81;5053004;28;20021;-71
2022/09/04 07:05:38;;;;;;;23.50;18.85;;;;;;;30.25;38.79;101707.47;5053919;28;20032;-71
2022/09/04 07:08:41;;;;;;;25.27;19.38;;;;;;;30.49;38.35;101698.38;5054581;28;20124;-71
2022/09/04 07:11:15;;;;;;;25.65;17.42;;;;;;;29.99;39.65;101708.66;5053468;28;20074;-71
2022/09/04 07:14:29;;;;;;;20.73;17.23;;;;;;;30.58;38.58;101703.03;5068993;28;20023;-71
2022/09/04 07:17:31;;;;;;;22.88;19.15;;;;;;;30.81;38.76;101694.88;4994085;28;20047;-71
2022/09/04 07:20:09;;;;;;;26.67;18.85;;;;;;;30.68;39.03;101699.56;5068050;28;20039;-71
2022/09/04 07:22:59;;;;;;;24.08;19.70;;;;;;;31.11;38.17;101706.84;5050130;28;20104;-71
2022/09/04 07:25:50;;;;;;;27.98;19.98;;;;;;;30.51;39.45;101715.28;5070644;28;20081;-71
2022/09/04 07:28:28;;;;;;;30.63;20.88;;;;;;;30.61;39.28;101716.25;5070728;28;20023;-71
2022/09/04 07:31:09;;;;;;;24.33;19.10;;;;;;;31.59;37.76;101717.16;5070601;28;20028;-72
2022/09/04 07:34:15;;;;;;;25.48;19.20;;;;;;;32.05;36.81;101717.69;5069959;28;20028;-71
2022/09/04 07:37:09;;;;;;;21.70;19.00;;;;;;;34.18;34.22;101718.16;5070826;28;20033;-71
2022/09/04 07:39:45;;;;;;;21.13;17.17;;;;;;;35.97;30.66;101722.81;5051795;28;20021;-72
2022/09/04 07:42:18;;;;;;;21.10;16.40;;;;;;;35.52;31.26;101732.00;5052608;28;20131;-71
2022/09/04 07:44:53;;;;;;;20.67;17.17;;;;;;;35.92;30.68;101729.75;5070912;28;20028;-71
2022/09/04 07:47:34;;;;;;;20.77;16.25;;;;;;;37.06;29.67;101723.03;5069970;28;20063;-71
2022/09/04 07:50:08;;;;;;;20.35;15.82;;;;;;;37.71;28.50;101723.19;5070183;28;20021;-71
2022/09/04 07:52:38;;;;;;;22.50;15.93;;;;;;;38.67;27.46;101738.53;5052616;28;20028;-71
2022/09/04 07:55:32;;;;;;;21.75;17.17;;;;;;;39.08;26.86;101733.84;5069945;28;20024;-72
2022/09/04 07:58:30;;;;;;;21.13;15.65;;;;;;;39.02;26.21;101746.34;5059950;28;20053;-71
2022/09/04 08:01:22;;;;;;;20.77;16.85;;;;;;;38.30;27.24;101748.25;5069459;28;20029;-71
2022/09/04 08:03:59;;;;;;;18.55;16.40;;;;;;;39.64;25.95;101749.97;5070391;28;20059;-71
2022/09/04 08:06:43;;;;;;;21.83;16.73;;;;;;;39.59;25.40;101750.50;5052575;28;20041;-71
2022/09/04 08:09:33;;;;;;;23.83;17.60;;;;;;;39.57;26.11;101749.84;5073362;28;20357;-71
2022/09/04 08:12:16;;;;;;;27.15;18.85;;;;;;;38.30;26.98;101753.72;5073717;28;20492;-69
2022/09/04 08:14:52;;;;;;;22.98;18.80;;;;;;;37.79;27.95;101759.47;5055459;28;20032;-71
2022/09/04 08:17:32;;;;;;;26.38;19.98;;;;;;;38.01;27.60;101766.06;5074515;28;20560;-72
2022/09/04 08:20:11;;;;;;;25.20;19.13;;;;;;;39.36;26.45;101764.22;5073641;28;20021;-71
2022/09/04 08:23:04;;;;;;;27.10;20.30;;;;;;;37.56;29.07;101772.94;5055211;28;20435;-71
2022/09/04 08:25:53;;;;;;;28.10;21.77;;;;;;;38.17;28.21;101769.81;5055798;28;20021;-71
2022/09/04 08:28:52;;;;;;;26.25;20.45;;;;;;;37.87;28.60;101769.53;5073956;28;20036;-71
2022/09/04 08:31:57;;;;;;;23.38;19.30;;;;;;;37.13;29.46;101775.81;5056049;28;20056;-71
2022/09/04 08:35:04;;;;;;;25.23;21.27;;;;;;;38.06;28.43;101772.88;5040479;28;20046;-71
2022/09/04 08:37:59;;;;;;;27.77;22.70;;;;;;;37.18;29.38;101775.31;5044766;28;20093;-71
2022/09/04 08:40:43;;;;;;;30.80;23.70;;;;;;;37.54;29.05;101772.28;5069227;28;20555;-71
2022/09/04 08:43:38;;;;;;;29.23;23.35;;;;;;;37.99;28.78;101770.88;5072572;28;20378;-71
2022/09/04 08:46:22;;;;;;;29.83;23.20;;;;;;;40.21;25.65;101773.13;5042219;28;20079;-71
2022/09/04 08:49:09;;;;;;;28.38;23.95;;;;;;;38.71;27.65;101781.91;5073567;28;20032;-71
2022/09/04 08:52:05;;;;;;;33.35;25.45;;;;;;;40.25;25.79;101777.19;5054868;28;20445;-71
2022/09/04 08:54:59;;;;;;;30.98;25.67;;;;;;;40.60;25.66;101785.69;5073249;28;20028;-71
2022/09/04 08:57:43;;;;;;;33.15;26.45;;;;;;;39.13;26.64;101784.19;5054615;28;20476;-71
2022/09/04 09:00:27;;;;;;;35.10;27.95;;;;;;;39.72;26.01;101784.59;5054991;28;20033;-71
2022/09/04 09:03:17;;;;;;;34.05;27.02;;;;;;;40.17;25.73;101785.50;5054709;28;20597;-71
2022/09/04 09:06:05;;;;;;;38.35;28.20;;;;;;;39.58;26.28;101789.81;5072368;28;20024;-71
2022/09/04 09:08:39;;;;;;;36.15;27.17;;;;;;;38.81;27.83;101793.44;5055187;28;20044;-68
2022/09/04 09:11:10;;;;;;;37.60;27.52;;;;;;;38.33;28.18;101791.59;5071817;28;20028;-71
2022/09/04 09:14:11;;;;;;;33.50;26.75;;;;;;;38.17;28.64;101794.38;5073053;28;20089;-71
2022/09/04 09:16:43;;;;;;;38.08;28.58;;;;;;;37.20;29.68;101800.50;5002870;28;20040;-71
2022/09/04 09:19:18;;;;;;;32.67;27.00;;;;;;;38.92;27.83;101809.41;5053076;28;20036;-71
2022/09/04 09:21:52;;;;;;;32.33;26.23;;;;;;;38.45;27.89;101805.69;5072717;28;20024;-71
2022/09/04 09:24:34;;;;;;;29.98;25.75;;;;;;;37.60;28.98;101795.28;5072833;28;20104;-71
2022/09/04 09:27:03;;;;;;;;;;;;;;;39.14;27.36;101801.44;5054279;28;20400;-71
2022/09/04 09:30:06;;;;;;;33.63;25.48;;;;;;;39.63;26.34;101798.34;5072683;28;20187;-71
2022/09/04 09:32:59;;;;;;;35.22;26.83;;;;;;;39.81;26.11;101794.44;5053939;28;20032;-71
2022/09/04 09:35:56;;;;;;;32.35;23.77;;;;;;;39.44;26.75;101796.09;5054704;28;20028;-71
2022/09/04 09:38:34;;;;;;;33.75;25.58;;;;;;;38.16;28.17;101800.84;5054479;28;20389;-71
2022/09/04 09:41:36;;;;;;;33.22;25.67;;;;;;;39.94;25.75;101797.38;5071150;28;20090;-71
2022/09/04 09:44:23;;;;;;;29.60;22.80;;;;;;;39.75;25.25;101797.88;5072156;28;20059;-69
2022/09/04 09:47:21;;;;;;;28.63;23.42;;;;;;;39.87;25.02;101799.13;5070983;28;20120;-69
2022/09/04 09:50:07;;;;;;;27.98;23.30;;;;;;;40.18;25.60;101792.69;5019828;28;20032;-71
2022/09/04 09:52:48;;;;;;;33.78;25.58;;;;;;;39.41;25.94;101801.94;5093062;28;20443;-71
2022/09/04 09:55:55;;;;;;;32.33;22.58;;;;;;;38.30;27.34;101807.47;5091158;28;20058;-71
2022/09/04 09:59:10;;;;;;;31.48;24.70;;;;;;;39.39;25.71;101796.63;5092900;28;20142;-71
2022/09/04 10:01:59;;;;;;;28.67;21.35;;;;;;;38.56;26.63;101796.28;5073475;28;20491;-71
2022/09/04 10:04:55;;;;;;;31.13;22.02;;;;;;;39.47;25.22;101802.03;5092068;28;20099;-71
2022/09/04 10:07:48;;;;;;;24.23;20.05;;;;;;;37.42;27.99;101799.03;5091450;28;20120;-71
2022/09/04 10:10:50;;;;;;;23.35;17.77;;;;;;;38.04;26.26;101796.78;5073714;28;20016;-71
2022/09/04 10:13:37;;;;;;;21.75;16.88;;;;;;;38.85;25.74;101801.09;5091970;28;20028;-71
2022/09/04 10:16:30;;;;;;;21.40;14.95;;;;;;;38.51;25.21;101801.41;5090800;28;20024;-71
2022/09/04 10:19:16;;;;;;;16.50;11.65;;;;;;;39.22;25.06;101806.03;5091698;28;20031;-71
2022/09/04 10:22:19;;;;;;;16.83;11.95;;;;;;;37.05;27.21;101807.63;5090966;28;20074;-71
2022/09/04 10:25:14;;;;;;;15.25;10.57;;;;;;;36.76;27.36;101798.84;5091841;28;20024;-71
2022/09/04 10:27:52;;;;;;;15.20;11.82;;;;;;;37.37;27.11;101798.66;5091817;28;20102;-71
2022/09/04 10:30:24;;;;;;;21.85;15.65;;;;;;;37.32;27.44;101799.19;5091566;28;20030;-68
2022/09/04 10:33:08;;;;;;;21.20;13.68;;;;;;;37.55;26.88;101797.66;5073219;28;20031;-71
2022/09/04 10:36:12;;;;;;;15.70;10.88;;;;;;;37.14;27.70;101802.03;5090925;28;20055;-71
2022/09/04 10:40:34;;;;;;;25.83;15.00;;;;;;;37.77;27.33;101801.59;4973449;28;20105;-71
2022/09/04 10:41:37;;;;;;;17.92;13.20;;;;;;;38.52;26.17;101805.84;5086717;28;20044;-71
2022/09/04 10:44:41;;;;;;;17.08;12.88;;;;;;;37.08;27.47;101812.75;5072356;28;20051;-71
2022/09/04 10:47:35;;;;;;;22.98;12.57;;;;;;;38.24;26.34;101813.63;5007681;28;20077;-71
2022/09/04 10:50:12;;;;;;;19.45;10.98;;;;;;;38.41;26.40;101819.91;5090526;28;20085;-71
2022/09/04 10:53:19;;;;;;;18.08;13.48;;;;;;;38.11;26.78;101814.16;5091495;28;20494;-71
2022/09/04 10:56:03;;;;;;;22.98;14.02;;;;;;;39.00;25.45;101809.38;5025638;28;20063;-71
2022/09/04 10:58:38;;;;;;;24.25;15.00;;;;;;;39.23;25.37;101814.03;5072581;28;20035;-71
2022/09/04 11:01:29;;;;;;;25.73;16.67;;;;;;;38.58;26.91;101807.88;5072716;28;20032;-71
2022/09/04 11:04:12;;;;;;;23.45;14.63;;;;;;;38.26;25.99;101817.88;5090300;28;20446;-70
2022/09/04 11:06:52;;;;;;;20.58;13.98;;;;;;;38.96;25.52;101818.94;5091293;28;20586;-71
2022/09/04 11:10:03;;;;;;;19.83;14.75;;;;;;;39.01;25.26;101822.00;5091236;28;20030;-71
2022/09/04 11:12:46;;;;;;;17.88;11.68;;;;;;;39.26;25.13;101824.59;5043923;28;20040;-73
2022/09/04 11:15:43;;;;;;;18.83;12.63;;;;;;;39.38;24.54;101827.78;5072708;28;20028;-70
2022/09/04 11:18:30;;;;;;;19.67;14.30;;;;;;;38.28;26.28;101815.84;5090156;28;20161;-71
2022/09/04 11:21:33;;;;;;;21.52;15.50;;;;;;;38.41;25.71;101814.44;5072786;28;20093;-68
2022/09/04 11:24:13;;;;;;;16.30;10.43;;;;;;;38.31;25.98;101812.75;5090887;28;20032;-71
2022/09/04 11:27:15;;;;;;;11.77;7.03;;;;;;;36.78;27.33;101806.84;5072100;28;20032;-71
2022/09/04 11:30:01;;;;;;;7.95;5.47;;;;;;;37.91;25.34;101814.53;5090814;28;20028;-71
2022/09/04 11:32:51;;;;;;;10.40;5.22;;;;;;;37.96;25.13;101805.81;5090593;28;20112;-70
2022/09/04 11:35:20;;;;;;;9.15;6.13;;;;;;;39.34;23.95;101808.13;5072998;28;20023;-71
2022/09/04 11:37:54;;;;;;;10.82;7.80;;;;;;;39.70;23.67;101809.41;5091035;28;20522;-71
2022/09/04 11:40:56;;;;;;;8.25;5.10;;;;;;;38.42;24.07;101818.88;5090090;28;20021;-71
2022/09/04 11:43:50;;;;;;;10.48;5.82;;;;;;;39.07;24.04;101811.38;5075639;28;20028;-71
2022/09/04 11:46:50;;;;;;;8.32;6.10;;;;;;;37.43;26.14;101821.69;5075638;28;20048;-71
2022/09/04 11:49:25;;;;;;;11.25;8.07;;;;;;;38.56;24.79;101812.66;5094759;28;20059;-71
2022/09/04 11:52:02;;;;;;;12.65;7.80;;;;;;;36.11;27.57;101804.84;5094491;28;20500;-70
2022/09/04 11:54:46;;;;;;;11.35;7.15;;;;;;;38.00;25.53;101802.59;5075817;28;20035;-70
2022/09/04 11:57:12;;;;;;;9.57;5.70;;;;;;;38.07;24.73;101807.34;5093999;28;20024;-71
2022/09/04 11:59:56;;;;;;;10.88;5.45;;;;;;;38.87;23.76;101820.06;5076315;28;20492;-71
2022/09/04 12:02:49;;;;;;;5.60;3.88;;;;;;;39.48;23.02;101816.56;5094607;28;20015;-70
2022/09/04 12:05:38;;;;;;;10.15;5.03;;;;;;;39.40;23.36;101808.44;5076215;28;20027;-71
2022/09/04 12:08:16;;;;;;;10.13;6.20;;;;;;;39.14;23.98;101810.47;5093379;28;20024;-71
2022/09/04 12:10:48;;;;;;;8.95;5.90;;;;;;;38.85;23.47;101811.19;5094054;28;20049;-71
2022/09/04 12:13:19;;;;;;;11.18;5.90;;;;;;;38.68;24.03;101813.97;5075744;28;20544;-70
2022/09/04 12:16:20;;;;;;;12.80;6.78;;;;;;;40.44;22.28;101816.00;5093411;28;20483;-68
2022/09/04 12:19:04;;;;;;;12.50;6.80;;;;;;;40.54;22.29;101814.66;4992079;28;20030;-71
2022/09/04 12:21:52;;;;;;;13.48;8.20;;;;;;;38.26;24.61;101817.88;5085147;28;20121;-70
2022/09/04 12:24:26;;;;;;;12.02;5.53;;;;;;;39.66;23.02;101819.84;5094180;28;20023;-71
2022/09/04 12:27:44;;;;;;;10.65;6.47;;;;;;;41.40;22.05;101809.53;5075403;28;20039;-71
2022/09/04 12:30:24;;;;;;;9.95;7.10;;;;;;;37.01;25.77;101818.88;5092846;28;20023;-70
2022/09/04 12:33:16;;;;;;;8.40;5.80;;;;;;;38.57;24.19;101819.81;5075440;28;20024;-71